createdAt,value
2022-11-28T00:01:27.027Z,10.20
2022-11-28T00:03:53.362Z,10.21
2022-11-28T00:06:19.686Z,10.19
2022-11-28T00:08:46.068Z,10.19
2022-11-28T00:11:12.388Z,10.20
2022-11-28T00:13:38.731Z,10.19
2022-11-28T00:16:05.123Z,10.19
2022-11-28T00:18:31.473Z,10.19
2022-11-28T00:20:57.832Z,10.19
2022-11-28T00:23:24.164Z,10.20
2022-11-28T00:25:50.561Z,10.08
2022-11-28T00:28:16.896Z,9.95
2022-11-28T00:30:43.253Z,9.83
2022-11-28T00:33:09.629Z,9.83
2022-11-28T00:35:36.039Z,9.89
2022-11-28T00:38:02.376Z,9.98
2022-11-28T00:40:28.720Z,10.03
2022-11-28T00:42:55.063Z,10.08
2022-11-28T00:45:21.430Z,10.12
2022-11-28T00:47:47.818Z,10.13
2022-11-28T00:50:14.273Z,10.11
2022-11-28T00:52:40.607Z,10.13
2022-11-28T00:55:06.928Z,10.14
2022-11-28T00:57:33.319Z,10.17
2022-11-28T00:59:59.672Z,10.17
2022-11-28T01:02:26.103Z,10.19
2022-11-28T01:04:52.360Z,10.19
2022-11-28T01:07:18.770Z,10.19
2022-11-28T01:09:45.108Z,10.17
2022-11-28T01:12:11.487Z,10.03
2022-11-28T01:14:37.860Z,9.90
2022-11-28T01:17:04.229Z,9.77
2022-11-28T01:19:30.539Z,9.78
2022-11-28T01:21:56.915Z,9.86
2022-11-28T01:24:23.226Z,9.92
2022-11-28T01:26:49.574Z,9.98
2022-11-28T01:29:15.890Z,10.00
2022-11-28T01:31:42.332Z,10.04
2022-11-28T01:34:08.626Z,10.06
2022-11-28T01:36:35.001Z,10.07
2022-11-28T01:39:01.358Z,10.08
2022-11-28T01:41:27.743Z,10.12
2022-11-28T01:43:54.101Z,10.12
2022-11-28T01:46:20.508Z,10.13
2022-11-28T01:48:46.790Z,10.15
2022-11-28T01:51:13.128Z,10.14
2022-11-28T01:53:39.483Z,10.15
2022-11-28T01:56:05.858Z,10.12
2022-11-28T01:58:32.210Z,10.01
2022-11-28T02:00:58.637Z,9.86
2022-11-28T02:03:24.952Z,9.77
2022-11-28T02:05:51.351Z,9.78
2022-11-28T02:08:17.665Z,9.87
2022-11-28T02:10:44.005Z,9.94
2022-11-28T02:13:10.360Z,9.98
2022-11-28T02:15:36.742Z,10.03
2022-11-28T02:18:03.098Z,10.05
2022-11-28T02:20:29.473Z,10.07
2022-11-28T02:22:55.833Z,10.09
2022-11-28T02:25:22.218Z,10.11
2022-11-28T02:27:48.582Z,10.11
2022-11-28T02:30:14.960Z,10.14
2022-11-28T02:32:41.289Z,10.13
2022-11-28T02:35:07.663Z,10.14
2022-11-28T02:37:34.022Z,10.14
2022-11-28T02:40:00.357Z,10.14
2022-11-28T02:42:26.751Z,10.08
2022-11-28T02:44:53.053Z,9.89
2022-11-28T02:47:19.368Z,9.74
2022-11-28T02:49:45.711Z,9.66
2022-11-28T02:52:12.077Z,9.72
2022-11-28T02:54:38.442Z,9.81
2022-11-28T02:57:04.757Z,9.88
2022-11-28T02:59:31.097Z,9.92
2022-11-28T03:01:57.475Z,9.97
2022-11-28T03:04:23.799Z,9.99
2022-11-28T03:06:50.138Z,10.01
2022-11-28T03:09:16.524Z,10.02
2022-11-28T03:11:42.858Z,10.03
2022-11-28T03:14:09.228Z,10.04
2022-11-28T03:16:35.641Z,10.05
2022-11-28T03:19:01.954Z,10.06
2022-11-28T03:21:28.313Z,10.07
2022-11-28T03:23:54.778Z,10.10
2022-11-28T03:26:21.131Z,10.08
2022-11-28T03:28:47.509Z,10.04
2022-11-28T03:31:13.927Z,9.89
2022-11-28T03:33:40.185Z,9.74
2022-11-28T03:36:06.580Z,9.67
2022-11-28T03:38:32.951Z,9.73
2022-11-28T03:40:59.313Z,9.80
2022-11-28T03:43:25.654Z,9.89
2022-11-28T03:45:51.951Z,9.95
2022-11-28T03:48:18.289Z,9.97
2022-11-28T03:50:44.609Z,9.99
2022-11-28T03:53:10.997Z,10.00
2022-11-28T03:55:37.349Z,10.02
2022-11-28T03:58:03.663Z,10.03
2022-11-28T04:00:30.022Z,10.05
2022-11-28T04:02:56.516Z,10.05
2022-11-28T04:05:22.725Z,10.05
2022-11-28T04:07:49.113Z,10.05
2022-11-28T04:10:15.454Z,10.04
2022-11-28T04:12:41.895Z,10.04
2022-11-28T04:15:08.210Z,9.95
2022-11-28T04:17:34.614Z,9.78
2022-11-28T04:20:00.961Z,9.64
2022-11-28T04:22:27.293Z,9.60
2022-11-28T04:24:53.673Z,9.69
2022-11-28T04:27:20.118Z,9.76
2022-11-28T04:29:46.433Z,9.83
2022-11-28T04:32:12.810Z,9.88
2022-11-28T04:34:39.196Z,9.90
2022-11-28T04:37:09.642Z,9.93
2022-11-28T04:39:31.884Z,9.93
2022-11-28T04:41:58.281Z,9.94
2022-11-28T04:44:24.592Z,9.96
2022-11-28T04:46:50.969Z,9.96
2022-11-28T04:49:17.292Z,9.98
2022-11-28T04:51:43.667Z,9.96
2022-11-28T04:54:10.054Z,9.95
2022-11-28T04:56:36.394Z,9.97
2022-11-28T04:59:02.754Z,9.96
2022-11-28T05:01:29.194Z,9.85
2022-11-28T05:03:55.428Z,9.68
2022-11-28T05:06:21.796Z,9.56
2022-11-28T05:08:48.117Z,9.53
2022-11-28T05:11:14.456Z,9.59
2022-11-28T05:13:40.825Z,9.70
2022-11-28T05:16:07.193Z,9.77
2022-11-28T05:18:33.504Z,9.83
2022-11-28T05:20:59.842Z,9.87
2022-11-28T05:23:26.158Z,9.90
2022-11-28T05:25:52.507Z,9.92
2022-11-28T05:28:18.864Z,9.94
2022-11-28T05:30:45.246Z,9.96
2022-11-28T05:33:11.604Z,9.96
2022-11-28T05:35:37.934Z,9.99
2022-11-28T05:38:05.010Z,10.00
2022-11-28T05:40:30.717Z,10.02
2022-11-28T05:42:57.069Z,10.03
2022-11-28T05:45:23.439Z,10.04
2022-11-28T05:47:49.785Z,9.89
2022-11-28T05:50:16.178Z,9.75
2022-11-28T05:52:42.530Z,9.63
2022-11-28T05:55:08.893Z,9.65
2022-11-28T05:57:35.231Z,9.78
2022-11-28T06:00:01.589Z,9.88
2022-11-28T06:02:27.986Z,9.94
2022-11-28T06:04:54.472Z,10.01
2022-11-28T06:07:20.707Z,10.04
2022-11-28T06:09:47.000Z,10.06
2022-11-28T06:12:13.358Z,10.07
2022-11-28T06:14:39.702Z,10.10
2022-11-28T06:17:06.064Z,10.11
2022-11-28T06:19:32.463Z,10.13
2022-11-28T06:21:58.788Z,10.14
2022-11-28T06:24:25.167Z,10.12
2022-11-28T06:26:51.566Z,10.14
2022-11-28T06:29:17.944Z,10.16
2022-11-28T06:31:44.325Z,10.15
2022-11-28T06:34:10.635Z,10.01
2022-11-28T06:36:37.021Z,9.86
2022-11-28T06:39:03.412Z,9.74
2022-11-28T06:41:29.723Z,9.78
2022-11-28T06:43:56.108Z,9.90
2022-11-28T06:46:22.497Z,10.00
2022-11-28T06:48:48.778Z,10.07
2022-11-28T06:51:15.155Z,10.11
2022-11-28T06:53:41.560Z,10.15
2022-11-28T06:56:07.902Z,10.20
2022-11-28T06:58:34.292Z,10.23
2022-11-28T07:01:00.795Z,10.27
2022-11-28T07:03:27.032Z,10.30
2022-11-28T07:05:53.377Z,10.34
2022-11-28T07:08:19.750Z,10.33
2022-11-28T07:10:46.100Z,10.37
2022-11-28T07:13:12.456Z,10.43
2022-11-28T07:15:38.827Z,10.44
2022-11-28T07:18:05.269Z,10.39
2022-11-28T07:20:31.600Z,10.22
2022-11-28T07:22:57.954Z,10.08
2022-11-28T07:25:24.293Z,9.99
2022-11-28T07:27:50.609Z,10.04
2022-11-28T07:30:16.953Z,10.15
2022-11-28T07:32:43.304Z,10.25
2022-11-28T07:35:09.645Z,10.33
2022-11-28T07:37:36.003Z,10.37
2022-11-28T07:40:02.424Z,10.45
2022-11-28T07:42:28.744Z,10.80
2022-11-28T07:44:55.150Z,11.86
2022-11-28T07:47:21.556Z,12.71
2022-11-28T07:49:47.899Z,13.31
2022-11-28T07:52:14.226Z,13.27
2022-11-28T07:54:40.660Z,12.86
2022-11-28T07:57:14.143Z,12.45
2022-11-28T07:59:33.400Z,12.13
2022-11-28T08:01:59.855Z,11.89
2022-11-28T08:04:26.292Z,11.73
2022-11-28T08:06:52.502Z,11.59
2022-11-28T08:09:18.879Z,11.46
2022-11-28T08:11:45.197Z,11.36
2022-11-28T08:14:11.578Z,11.25
2022-11-28T08:16:38.181Z,11.16
2022-11-28T08:19:04.493Z,11.07
2022-11-28T08:21:30.845Z,11.00
2022-11-28T08:23:57.182Z,10.95
2022-11-28T08:26:27.502Z,10.91
2022-11-28T08:28:49.888Z,10.86
2022-11-28T08:31:16.298Z,10.82
2022-11-28T08:33:42.600Z,10.79
2022-11-28T08:36:08.935Z,10.77
2022-11-28T08:38:35.275Z,10.74
2022-11-28T08:41:01.602Z,10.73
2022-11-28T08:43:27.992Z,10.72
2022-11-28T08:45:54.351Z,10.73
2022-11-28T08:48:20.704Z,10.75
2022-11-28T08:50:48.230Z,10.79
2022-11-28T08:53:18.609Z,10.84
2022-11-28T08:55:41.974Z,10.88
2022-11-28T08:58:06.161Z,10.96
2022-11-28T09:00:32.514Z,11.00
2022-11-28T09:02:58.847Z,11.03
2022-11-28T09:05:25.164Z,11.03
2022-11-28T09:07:51.605Z,11.03
2022-11-28T09:10:17.904Z,11.03
2022-11-28T09:12:44.385Z,11.05
2022-11-28T09:15:10.736Z,11.07
2022-11-28T09:17:37.161Z,11.12
2022-11-28T09:20:03.444Z,11.15
2022-11-28T09:22:29.870Z,11.18
2022-11-28T09:24:56.224Z,11.23
2022-11-28T09:27:22.633Z,11.31
2022-11-28T09:29:49.018Z,11.41
2022-11-28T09:32:15.417Z,11.51
2022-11-28T09:34:41.782Z,11.66
2022-11-28T09:37:08.150Z,11.82
2022-11-28T09:39:44.336Z,11.96
2022-11-28T09:42:00.906Z,12.10
2022-11-28T09:44:27.211Z,12.25
2022-11-28T09:46:53.553Z,12.44
2022-11-28T09:49:19.896Z,12.59
2022-11-28T09:51:46.231Z,12.70
2022-11-28T09:54:12.585Z,12.89
2022-11-28T09:56:38.963Z,13.17
2022-11-28T09:59:05.339Z,13.36
2022-11-28T10:01:31.715Z,13.40
2022-11-28T10:03:58.134Z,13.37
2022-11-28T10:06:24.420Z,13.33
2022-11-28T10:08:50.739Z,13.35
2022-11-28T10:11:17.082Z,13.43
2022-11-28T10:14:06.494Z,13.48
2022-11-28T10:16:09.835Z,13.46
2022-11-28T10:18:36.187Z,13.36
2022-11-28T10:21:02.604Z,13.25
2022-11-28T10:23:28.922Z,13.13
2022-11-28T10:25:55.302Z,13.00
2022-11-28T10:28:21.631Z,12.87
2022-11-28T10:30:48.047Z,12.84
2022-11-28T10:33:14.336Z,12.77
2022-11-28T10:35:40.684Z,12.71
2022-11-28T10:38:07.006Z,12.66
2022-11-28T10:40:33.402Z,12.62
2022-11-28T10:42:59.711Z,12.59
2022-11-28T10:45:26.071Z,12.55
2022-11-28T10:47:52.393Z,12.51
2022-11-28T10:50:18.769Z,12.50
2022-11-28T10:52:45.160Z,12.52
2022-11-28T10:55:11.538Z,12.56
2022-11-28T10:57:37.930Z,12.63
2022-11-28T11:00:04.271Z,12.70
2022-11-28T11:02:30.582Z,12.77
2022-11-28T11:04:57.074Z,12.87
2022-11-28T11:07:29.079Z,13.03
2022-11-28T11:09:49.671Z,13.14
2022-11-28T11:12:16.039Z,13.18
2022-11-28T11:14:42.386Z,13.19
2022-11-28T11:17:08.814Z,13.16
2022-11-28T11:19:35.193Z,13.12
2022-11-28T11:22:01.660Z,13.07
2022-11-28T11:24:28.071Z,13.03
2022-11-28T11:26:54.389Z,12.99
2022-11-28T11:29:20.787Z,12.97
2022-11-28T11:31:47.177Z,12.95
2022-11-28T11:34:13.526Z,12.94
2022-11-28T11:36:39.867Z,12.90
2022-11-28T11:39:06.296Z,12.85
2022-11-28T11:41:32.613Z,12.79
2022-11-28T11:43:58.998Z,12.72
2022-11-28T11:46:25.513Z,12.64
2022-11-28T11:48:51.839Z,12.57
2022-11-28T11:51:18.192Z,12.51
2022-11-28T11:53:44.634Z,12.46
2022-11-28T11:56:10.916Z,12.42
2022-11-28T11:58:37.414Z,12.39
2022-11-28T12:01:03.750Z,12.34
2022-11-28T12:03:30.197Z,12.33
2022-11-28T12:06:13.852Z,12.31
2022-11-28T12:08:22.873Z,12.30
2022-11-28T12:10:49.609Z,12.30
2022-11-28T12:13:16.009Z,12.30
2022-11-28T12:15:42.393Z,12.29
2022-11-28T12:18:08.749Z,12.29
2022-11-28T12:20:35.213Z,12.28
2022-11-28T12:23:01.605Z,12.27
2022-11-28T12:25:27.951Z,12.26
2022-11-28T12:27:54.334Z,12.23
2022-11-28T12:30:20.754Z,12.21
2022-11-28T12:32:47.122Z,12.18
2022-11-28T12:35:13.471Z,12.17
2022-11-28T12:38:09.155Z,12.15
2022-11-28T12:40:06.271Z,12.13
2022-11-28T12:42:32.597Z,12.10
2022-11-28T12:44:58.943Z,12.07
2022-11-28T12:47:25.312Z,12.00
2022-11-28T12:49:51.668Z,11.98
2022-11-28T12:52:18.354Z,11.95
2022-11-28T12:54:44.772Z,11.92
2022-11-28T12:57:11.131Z,11.90
2022-11-28T12:59:37.496Z,11.88
2022-11-28T13:02:09.397Z,11.86
2022-11-28T13:04:30.269Z,11.84
2022-11-28T13:06:56.602Z,11.81
2022-11-28T13:09:23.022Z,11.77
2022-11-28T13:11:49.441Z,11.75
2022-11-28T13:14:15.747Z,11.71
2022-11-28T13:16:42.218Z,11.68
2022-11-28T13:19:08.555Z,11.66
2022-11-28T13:21:34.887Z,11.64
2022-11-28T13:24:06.905Z,11.61
2022-11-28T13:26:27.602Z,11.59
2022-11-28T13:28:53.930Z,11.56
2022-11-28T13:31:20.397Z,11.53
2022-11-28T13:33:46.639Z,11.50
2022-11-28T13:38:34.908Z,11.47
2022-11-28T13:38:49.322Z,11.44
2022-11-28T13:41:05.688Z,11.41
2022-11-28T13:43:33.128Z,11.37
2022-11-28T13:45:58.399Z,11.34
2022-11-28T13:48:42.895Z,11.31
2022-11-28T13:50:51.264Z,11.27
2022-11-28T13:53:17.585Z,11.24
2022-11-28T13:55:43.961Z,11.19
2022-11-28T13:58:10.344Z,11.16
2022-11-28T14:00:36.682Z,11.10
2022-11-28T14:03:03.024Z,11.10
2022-11-28T14:05:29.350Z,11.04
2022-11-28T14:07:56.253Z,11.04
2022-11-28T14:10:22.042Z,11.00
2022-11-28T14:12:48.411Z,10.98
2022-11-28T14:15:15.172Z,10.95
2022-11-28T14:17:41.156Z,10.91
2022-11-28T14:20:07.604Z,10.87
2022-11-28T14:22:33.861Z,10.85
2022-11-28T14:25:00.260Z,10.83
2022-11-28T14:27:26.578Z,10.81
2022-11-28T14:29:52.918Z,10.78
2022-11-28T14:32:30.128Z,10.75
2022-11-28T14:34:46.032Z,10.71
2022-11-28T14:37:11.974Z,10.69
2022-11-28T14:39:38.360Z,10.66
2022-11-28T14:42:04.714Z,10.64
2022-11-28T14:44:31.043Z,10.62
2022-11-28T14:46:57.397Z,10.59
2022-11-28T14:49:23.791Z,10.58
2022-11-28T14:51:53.604Z,10.55
2022-11-28T14:54:16.467Z,10.53
2022-11-28T14:56:42.841Z,10.51
2022-11-28T14:59:09.213Z,10.48
2022-11-28T15:01:35.528Z,10.46
2022-11-28T15:04:01.881Z,10.45
2022-11-28T15:06:28.247Z,10.42
2022-11-28T15:08:54.587Z,10.39
2022-11-28T15:11:20.974Z,10.38
2022-11-28T15:13:47.336Z,10.36
2022-11-28T15:16:13.755Z,10.34
2022-11-28T15:18:40.115Z,10.32
2022-11-28T15:21:06.424Z,10.32
2022-11-28T15:23:32.810Z,10.28
2022-11-28T15:25:59.182Z,10.27
2022-11-28T15:28:25.550Z,10.25
2022-11-28T15:30:51.905Z,10.25
2022-11-28T15:33:18.285Z,10.22
2022-11-28T15:35:44.636Z,10.21
2022-11-28T15:38:10.977Z,10.20
2022-11-28T15:40:37.309Z,10.18
2022-11-28T15:43:06.740Z,10.15
2022-11-28T15:45:29.978Z,10.14
2022-11-28T15:47:56.362Z,10.13
2022-11-28T15:50:22.682Z,10.12
2022-11-28T15:52:49.033Z,10.11
2022-11-28T15:55:15.412Z,10.10
2022-11-28T15:57:41.750Z,10.09
2022-11-28T16:00:08.097Z,10.07
2022-11-28T16:02:34.528Z,10.06
2022-11-28T16:05:00.784Z,10.05
2022-11-28T16:07:27.136Z,10.04
2022-11-28T16:09:53.486Z,10.02
2022-11-28T16:12:19.820Z,10.00
2022-11-28T16:14:46.404Z,9.98
2022-11-28T16:17:12.560Z,9.97
2022-11-28T16:19:38.920Z,9.96
2022-11-28T16:22:05.299Z,9.93
2022-11-28T16:24:38.135Z,9.92
2022-11-28T16:26:57.957Z,9.90
2022-11-28T16:29:24.275Z,9.88
2022-11-28T16:31:50.674Z,9.85
2022-11-28T16:34:16.946Z,9.84
2022-11-28T16:36:43.366Z,9.82
2022-11-28T16:39:09.684Z,9.80
2022-11-28T16:41:36.057Z,9.79
2022-11-28T16:44:02.401Z,9.77
2022-11-28T16:46:28.775Z,9.75
2022-11-28T16:48:55.133Z,9.75
2022-11-28T16:51:21.567Z,9.75
2022-11-28T16:53:47.881Z,9.74
2022-11-28T16:56:14.256Z,9.73
2022-11-28T16:58:40.648Z,9.74
2022-11-28T17:01:07.061Z,9.73
2022-11-28T17:03:33.390Z,9.73
2022-11-28T17:05:59.735Z,9.73
2022-11-28T17:08:30.307Z,9.72
2022-11-28T17:10:52.416Z,9.71
2022-11-28T17:13:18.736Z,9.70
2022-11-28T17:15:45.117Z,9.70
2022-11-28T17:18:11.433Z,9.69
2022-11-28T17:20:37.828Z,9.67
2022-11-28T17:23:04.209Z,9.67
2022-11-28T17:25:30.528Z,9.65
2022-11-28T17:27:56.906Z,9.66
2022-11-28T17:30:23.267Z,9.66
2022-11-28T17:32:49.663Z,9.66
2022-11-28T17:35:15.976Z,9.65
2022-11-28T17:37:42.391Z,9.63
2022-11-28T17:40:08.687Z,9.61
2022-11-28T17:42:35.017Z,9.60
2022-11-28T17:45:01.375Z,9.60
2022-11-28T17:47:27.843Z,9.60
2022-11-28T17:49:54.114Z,9.59
2022-11-28T17:52:20.496Z,9.57
2022-11-28T17:54:46.878Z,9.57
2022-11-28T17:57:13.217Z,9.57
2022-11-28T17:59:39.588Z,9.55
2022-11-28T18:02:06.007Z,9.55
2022-11-28T18:04:32.258Z,9.55
2022-11-28T18:06:58.644Z,9.58
2022-11-28T18:09:24.972Z,9.65
2022-11-28T18:11:51.309Z,9.63
2022-11-28T18:14:19.950Z,9.61
2022-11-28T18:16:45.031Z,9.59
2022-11-28T18:19:11.347Z,9.56
2022-11-28T18:21:37.766Z,9.57
2022-11-28T18:24:04.088Z,9.57
2022-11-28T18:26:30.434Z,9.55
2022-11-28T18:28:56.831Z,9.54
2022-11-28T18:31:23.269Z,9.55
2022-11-28T18:33:49.570Z,9.53
2022-11-28T18:36:16.041Z,9.52
2022-11-28T18:38:42.347Z,9.52
2022-11-28T18:41:08.730Z,9.53
2022-11-28T18:43:35.040Z,9.52
2022-11-28T18:46:01.501Z,9.52
2022-11-28T18:48:27.780Z,9.51
2022-11-28T18:50:54.168Z,9.51
2022-11-28T18:53:20.532Z,9.50
2022-11-28T18:55:46.946Z,10.07
2022-11-28T18:58:13.287Z,10.72
2022-11-28T19:00:39.685Z,10.68
2022-11-28T19:03:06.079Z,10.59
2022-11-28T19:05:37.827Z,10.45
2022-11-28T19:07:58.830Z,10.30
2022-11-28T19:10:25.195Z,10.18
2022-11-28T19:12:51.548Z,10.09
2022-11-28T19:15:17.934Z,10.02
2022-11-28T19:17:44.254Z,9.97
2022-11-28T19:20:10.604Z,9.91
2022-11-28T19:22:36.953Z,9.86
2022-11-28T19:25:03.282Z,9.85
2022-11-28T19:27:29.606Z,9.82
2022-11-28T19:29:56.004Z,9.81
2022-11-28T19:32:22.388Z,9.79
2022-11-28T19:34:48.732Z,9.75
2022-11-28T19:37:15.090Z,9.73
2022-11-28T19:39:41.788Z,9.72
2022-11-28T19:42:07.830Z,9.70
2022-11-28T19:44:34.212Z,9.69
2022-11-28T19:47:00.545Z,9.68
2022-11-28T19:49:26.928Z,9.66
2022-11-28T19:51:53.285Z,9.63
2022-11-28T19:54:19.887Z,9.62
2022-11-28T19:56:46.086Z,9.57
2022-11-28T19:59:12.425Z,9.60
2022-11-28T20:01:38.826Z,9.59
2022-11-28T20:04:05.176Z,9.57
2022-11-28T20:06:31.495Z,9.57
2022-11-28T20:08:57.893Z,9.55
2022-11-28T20:11:24.212Z,9.54
2022-11-28T20:13:50.597Z,9.55
2022-11-28T20:16:16.994Z,9.54
2022-11-28T20:18:43.331Z,9.53
2022-11-28T20:21:09.628Z,9.53
2022-11-28T20:23:36.027Z,9.53
2022-11-28T20:26:02.416Z,9.53
2022-11-28T20:28:28.763Z,9.51
2022-11-28T20:30:55.096Z,9.50
2022-11-28T20:33:21.470Z,9.50
2022-11-28T20:35:47.825Z,9.48
2022-11-28T20:38:14.244Z,9.49
2022-11-28T20:40:40.592Z,9.47
2022-11-28T20:43:06.937Z,9.48
2022-11-28T20:45:33.314Z,9.47
2022-11-28T20:47:59.668Z,9.46
2022-11-28T20:50:26.056Z,9.47
2022-11-28T20:52:52.448Z,9.45
2022-11-28T20:55:18.765Z,9.45
2022-11-28T20:57:45.142Z,9.42
2022-11-28T21:00:11.492Z,9.44
2022-11-28T21:02:37.884Z,9.44
2022-11-28T21:05:04.170Z,9.43
2022-11-28T21:07:30.565Z,9.43
2022-11-28T21:09:56.854Z,9.38
2022-11-28T21:12:23.232Z,9.42
2022-11-28T21:14:49.518Z,9.41
2022-11-28T21:17:15.896Z,9.41
2022-11-28T21:19:42.453Z,9.40
2022-11-28T21:22:08.550Z,9.40
2022-11-28T21:24:34.914Z,9.39
2022-11-28T21:27:01.251Z,9.38
2022-11-28T21:29:27.610Z,9.39
2022-11-28T21:31:54.070Z,9.38
2022-11-28T21:34:20.303Z,9.38
2022-11-28T21:36:46.648Z,9.37
2022-11-28T21:39:12.972Z,9.37
2022-11-28T21:41:39.372Z,9.37
2022-11-28T21:44:05.749Z,9.37
2022-11-28T21:46:32.080Z,9.36
2022-11-28T21:48:58.406Z,9.35
2022-11-28T21:51:24.802Z,9.35
2022-11-28T21:53:51.149Z,9.33
2022-11-28T21:56:17.478Z,9.33
2022-11-28T21:58:46.036Z,9.32
2022-11-28T22:01:12.422Z,9.31
2022-11-28T22:03:38.833Z,9.30
2022-11-28T22:06:05.074Z,9.29
2022-11-28T22:08:31.461Z,9.27
2022-11-28T22:10:57.808Z,9.26
2022-11-28T22:13:24.155Z,9.26
2022-11-28T22:15:50.542Z,9.25
2022-11-28T22:18:16.863Z,9.24
2022-11-28T22:20:45.787Z,9.23
2022-11-28T22:23:09.506Z,9.23
2022-11-28T22:25:35.934Z,9.22
2022-11-28T22:28:02.283Z,9.21
2022-11-28T22:30:28.633Z,9.21
2022-11-28T22:32:55.014Z,9.19
2022-11-28T22:35:21.387Z,9.19
2022-11-28T22:37:47.737Z,9.18
2022-11-28T22:40:14.157Z,9.17
2022-11-28T22:42:40.511Z,9.16
2022-11-28T22:45:06.848Z,9.15
2022-11-28T22:47:33.240Z,9.17
2022-11-28T22:49:59.620Z,9.15
2022-11-28T22:52:25.976Z,9.15
2022-11-28T22:54:52.351Z,9.14
2022-11-28T22:57:18.673Z,9.14
2022-11-28T22:59:45.008Z,9.12
2022-11-28T23:02:11.537Z,9.13
2022-11-28T23:04:37.778Z,9.13
2022-11-28T23:07:04.090Z,9.13
2022-11-28T23:09:30.509Z,9.12
2022-11-28T23:11:56.820Z,9.12
2022-11-28T23:14:23.193Z,9.11
2022-11-28T23:16:49.569Z,9.10
2022-11-28T23:19:15.893Z,9.10
2022-11-28T23:21:42.250Z,9.09
2022-11-28T23:24:08.576Z,9.09
2022-11-28T23:26:34.937Z,9.09
2022-11-28T23:29:01.313Z,9.08
2022-11-28T23:31:27.756Z,9.07
2022-11-28T23:33:54.026Z,9.08
2022-11-28T23:36:20.355Z,9.07
2022-11-28T23:38:46.760Z,9.06
2022-11-28T23:41:13.068Z,9.06
2022-11-28T23:43:39.452Z,9.07
2022-11-28T23:46:05.918Z,9.06
2022-11-28T23:48:32.260Z,9.05
2022-11-28T23:50:58.608Z,9.05
2022-11-28T23:53:24.985Z,9.05
2022-11-28T23:55:51.347Z,9.04
2022-11-28T23:58:17.736Z,9.04
